sensor_id;sensor_type;location;lat;lon;timestamp;temperature;humidity
23053;DHT22;11694;-36.632;-64.318;2022-09-02T00:00:59;12.70;99.90
23053;DHT22;11694;-36.632;-64.318;2022-09-02T00:03:33;12.70;99.90
23053;DHT22;11694;-36.632;-64.318;2022-09-02T00:06:02;12.70;99.90
23053;DHT22;11694;-36.632;-64.318;2022-09-02T00:08:29;12.70;99.90
23053;DHT22;11694;-36.632;-64.318;2022-09-02T00:10:59;12.60;99.90
23053;DHT22;11694;-36.632;-64.318;2022-09-02T00:13:33;12.60;99.90
23053;DHT22;11694;-36.632;-64.318;2022-09-02T00:16:01;12.60;99.90
23053;DHT22;11694;-36.632;-64.318;2022-09-02T00:18:28;12.60;99.90
23053;DHT22;11694;-36.632;-64.318;2022-09-02T00:21:00;12.60;99.90
23053;DHT22;11694;-36.632;-64.318;2022-09-02T00:23:28;12.50;99.90
23053;DHT22;11694;-36.632;-64.318;2022-09-02T00:25:56;12.40;99.90
23053;DHT22;11694;-36.632;-64.318;2022-09-02T00:28:25;12.40;99.90
23053;DHT22;11694;-36.632;-64.318;2022-09-02T00:30:52;12.50;99.90
23053;DHT22;11694;-36.632;-64.318;2022-09-02T00:33:19;12.60;99.90
23053;DHT22;11694;-36.632;-64.318;2022-09-02T00:35:46;12.50;99.90
23053;DHT22;11694;-36.632;-64.318;2022-09-02T00:38:14;12.50;99.90
23053;DHT22;11694;-36.632;-64.318;2022-09-02T00:40:50;12.40;99.90
23053;DHT22;11694;-36.632;-64.318;2022-09-02T00:43:40;12.40;99.90
23053;DHT22;11694;-36.632;-64.318;2022-09-02T00:46:09;12.30;99.90
23053;DHT22;11694;-36.632;-64.318;2022-09-02T00:48:39;12.30;99.90
23053;DHT22;11694;-36.632;-64.318;2022-09-02T00:51:08;12.10;99.90
23053;DHT22;11694;-36.632;-64.318;2022-09-02T00:53:36;12.00;99.90
23053;DHT22;11694;-36.632;-64.318;2022-09-02T00:56:06;11.90;99.90
23053;DHT22;11694;-36.632;-64.318;2022-09-02T00:58:36;11.80;99.90
23053;DHT22;11694;-36.632;-64.318;2022-09-02T01:01:04;11.90;99.90
23053;DHT22;11694;-36.632;-64.318;2022-09-02T01:03:32;11.80;99.90
23053;DHT22;11694;-36.632;-64.318;2022-09-02T01:06:00;11.80;99.90
23053;DHT22;11694;-36.632;-64.318;2022-09-02T01:08:33;11.80;99.90
23053;DHT22;11694;-36.632;-64.318;2022-09-02T01:11:02;11.70;99.90
23053;DHT22;11694;-36.632;-64.318;2022-09-02T01:13:37;11.60;99.90
23053;DHT22;11694;-36.632;-64.318;2022-09-02T01:16:17;11.60;99.90
23053;DHT22;11694;-36.632;-64.318;2022-09-02T01:18:49;11.50;99.90
23053;DHT22;11694;-36.632;-64.318;2022-09-02T01:21:16;11.50;99.90
23053;DHT22;11694;-36.632;-64.318;2022-09-02T01:23:45;11.40;99.90
23053;DHT22;11694;-36.632;-64.318;2022-09-02T01:26:13;11.30;99.90
23053;DHT22;11694;-36.632;-64.318;2022-09-02T01:28:40;11.30;99.90
23053;DHT22;11694;-36.632;-64.318;2022-09-02T01:31:07;11.20;99.90
23053;DHT22;11694;-36.632;-64.318;2022-09-02T01:33:35;11.10;99.90
23053;DHT22;11694;-36.632;-64.318;2022-09-02T01:36:02;11.10;99.90
23053;DHT22;11694;-36.632;-64.318;2022-09-02T01:38:31;11.00;99.90
23053;DHT22;11694;-36.632;-64.318;2022-09-02T01:40:58;11.00;99.90
23053;DHT22;11694;-36.632;-64.318;2022-09-02T01:43:27;11.00;99.90
23053;DHT22;11694;-36.632;-64.318;2022-09-02T01:45:57;11.00;99.90
23053;DHT22;11694;-36.632;-64.318;2022-09-02T01:48:25;10.90;99.90
23053;DHT22;11694;-36.632;-64.318;2022-09-02T01:50:56;10.90;99.90
23053;DHT22;11694;-36.632;-64.318;2022-09-02T01:53:23;10.80;99.90
23053;DHT22;11694;-36.632;-64.318;2022-09-02T01:55:51;10.80;99.90
23053;DHT22;11694;-36.632;-64.318;2022-09-02T01:58:19;10.90;99.90
23053;DHT22;11694;-36.632;-64.318;2022-09-02T02:00:46;10.80;99.90
23053;DHT22;11694;-36.632;-64.318;2022-09-02T02:03:14;10.80;99.90
23053;DHT22;11694;-36.632;-64.318;2022-09-02T02:05:44;10.80;99.90
23053;DHT22;11694;-36.632;-64.318;2022-09-02T02:08:12;10.70;99.90
23053;DHT22;11694;-36.632;-64.318;2022-09-02T02:10:40;10.60;99.90
23053;DHT22;11694;-36.632;-64.318;2022-09-02T02:13:08;10.50;99.90
23053;DHT22;11694;-36.632;-64.318;2022-09-02T02:15:40;10.60;99.90
23053;DHT22;11694;-36.632;-64.318;2022-09-02T02:18:08;10.60;99.90
23053;DHT22;11694;-36.632;-64.318;2022-09-02T02:20:36;10.60;99.90
23053;DHT22;11694;-36.632;-64.318;2022-09-02T02:23:04;10.60;99.90
23053;DHT22;11694;-36.632;-64.318;2022-09-02T02:25:32;10.60;99.90
23053;DHT22;11694;-36.632;-64.318;2022-09-02T02:27:59;10.70;99.90
23053;DHT22;11694;-36.632;-64.318;2022-09-02T02:30:26;10.70;99.90
23053;DHT22;11694;-36.632;-64.318;2022-09-02T02:32:53;10.70;99.90
23053;DHT22;11694;-36.632;-64.318;2022-09-02T02:35:20;10.60;99.90
23053;DHT22;11694;-36.632;-64.318;2022-09-02T02:37:48;10.60;99.90
23053;DHT22;11694;-36.632;-64.318;2022-09-02T02:40:18;10.50;99.90
23053;DHT22;11694;-36.632;-64.318;2022-09-02T02:42:46;10.40;99.90
23053;DHT22;11694;-36.632;-64.318;2022-09-02T02:45:14;10.40;99.90
23053;DHT22;11694;-36.632;-64.318;2022-09-02T02:47:42;10.30;99.90
23053;DHT22;11694;-36.632;-64.318;2022-09-02T02:50:15;10.30;99.90
23053;DHT22;11694;-36.632;-64.318;2022-09-02T02:52:43;10.20;99.90
23053;DHT22;11694;-36.632;-64.318;2022-09-02T02:55:13;10.20;99.90
23053;DHT22;11694;-36.632;-64.318;2022-09-02T02:57:41;10.10;99.90
23053;DHT22;11694;-36.632;-64.318;2022-09-02T03:00:12;10.00;99.90
23053;DHT22;11694;-36.632;-64.318;2022-09-02T03:02:39;9.80;99.90
23053;DHT22;11694;-36.632;-64.318;2022-09-02T03:05:07;9.70;99.90
23053;DHT22;11694;-36.632;-64.318;2022-09-02T03:07:35;9.70;99.90
23053;DHT22;11694;-36.632;-64.318;2022-09-02T03:10:03;9.60;99.90
23053;DHT22;11694;-36.632;-64.318;2022-09-02T03:12:34;9.50;99.90
23053;DHT22;11694;-36.632;-64.318;2022-09-02T03:15:02;9.40;99.90
23053;DHT22;11694;-36.632;-64.318;2022-09-02T03:17:30;9.30;99.90
23053;DHT22;11694;-36.632;-64.318;2022-09-02T03:19:57;9.10;99.90
23053;DHT22;11694;-36.632;-64.318;2022-09-02T03:22:26;9.10;99.90
23053;DHT22;11694;-36.632;-64.318;2022-09-02T03:24:53;9.00;99.90
23053;DHT22;11694;-36.632;-64.318;2022-09-02T03:27:20;8.90;99.90
23053;DHT22;11694;-36.632;-64.318;2022-09-02T03:29:47;8.80;99.90
23053;DHT22;11694;-36.632;-64.318;2022-09-02T03:32:14;8.70;99.90
23053;DHT22;11694;-36.632;-64.318;2022-09-02T03:34:41;8.60;99.90
23053;DHT22;11694;-36.632;-64.318;2022-09-02T03:37:09;8.60;99.90
23053;DHT22;11694;-36.632;-64.318;2022-09-02T03:39:37;8.50;99.90
23053;DHT22;11694;-36.632;-64.318;2022-09-02T03:42:06;8.50;99.90
23053;DHT22;11694;-36.632;-64.318;2022-09-02T03:44:33;8.50;99.90
23053;DHT22;11694;-36.632;-64.318;2022-09-02T03:47:00;8.40;99.90
23053;DHT22;11694;-36.632;-64.318;2022-09-02T03:49:28;8.40;99.90
23053;DHT22;11694;-36.632;-64.318;2022-09-02T03:51:55;8.20;99.90
23053;DHT22;11694;-36.632;-64.318;2022-09-02T03:54:22;8.20;99.90
23053;DHT22;11694;-36.632;-64.318;2022-09-02T03:56:49;8.10;99.90
23053;DHT22;11694;-36.632;-64.318;2022-09-02T03:59:17;8.10;99.90
23053;DHT22;11694;-36.632;-64.318;2022-09-02T04:01:44;8.00;99.90
23053;DHT22;11694;-36.632;-64.318;2022-09-02T04:04:12;8.00;99.90
23053;DHT22;11694;-36.632;-64.318;2022-09-02T04:06:39;7.90;99.90
23053;DHT22;11694;-36.632;-64.318;2022-09-02T04:09:06;7.70;99.90
23053;DHT22;11694;-36.632;-64.318;2022-09-02T04:11:33;7.60;99.90
23053;DHT22;11694;-36.632;-64.318;2022-09-02T04:14:02;7.60;99.90
23053;DHT22;11694;-36.632;-64.318;2022-09-02T04:16:29;7.60;99.90
23053;DHT22;11694;-36.632;-64.318;2022-09-02T04:18:57;7.60;99.90
23053;DHT22;11694;-36.632;-64.318;2022-09-02T04:21:27;7.60;99.90
23053;DHT22;11694;-36.632;-64.318;2022-09-02T04:23:55;7.40;99.90
23053;DHT22;11694;-36.632;-64.318;2022-09-02T04:26:23;7.30;99.90
23053;DHT22;11694;-36.632;-64.318;2022-09-02T04:28:50;7.20;99.90
23053;DHT22;11694;-36.632;-64.318;2022-09-02T04:31:21;7.10;99.90
23053;DHT22;11694;-36.632;-64.318;2022-09-02T04:33:48;6.80;1.00
23053;DHT22;11694;-36.632;-64.318;2022-09-02T04:36:17;6.80;1.00
23053;DHT22;11694;-36.632;-64.318;2022-09-02T04:38:45;6.60;1.00
23053;DHT22;11694;-36.632;-64.318;2022-09-02T04:41:20;6.40;1.00
23053;DHT22;11694;-36.632;-64.318;2022-09-02T04:43:49;6.30;1.00
23053;DHT22;11694;-36.632;-64.318;2022-09-02T04:46:17;6.20;1.00
23053;DHT22;11694;-36.632;-64.318;2022-09-02T04:48:45;6.00;1.00
23053;DHT22;11694;-36.632;-64.318;2022-09-02T04:51:15;5.70;1.00
23053;DHT22;11694;-36.632;-64.318;2022-09-02T04:53:43;5.60;1.00
23053;DHT22;11694;-36.632;-64.318;2022-09-02T04:56:13;5.50;1.00
23053;DHT22;11694;-36.632;-64.318;2022-09-02T04:58:42;5.30;1.00
23053;DHT22;11694;-36.632;-64.318;2022-09-02T05:01:18;5.10;1.00
23053;DHT22;11694;-36.632;-64.318;2022-09-02T05:03:47;5.10;1.00
23053;DHT22;11694;-36.632;-64.318;2022-09-02T05:06:25;5.10;1.00
23053;DHT22;11694;-36.632;-64.318;2022-09-02T05:08:54;5.10;1.00
23053;DHT22;11694;-36.632;-64.318;2022-09-02T05:11:24;5.10;1.00
23053;DHT22;11694;-36.632;-64.318;2022-09-02T05:13:57;5.00;1.00
23053;DHT22;11694;-36.632;-64.318;2022-09-02T05:16:28;4.90;1.00
23053;DHT22;11694;-36.632;-64.318;2022-09-02T05:18:55;4.90;1.00
23053;DHT22;11694;-36.632;-64.318;2022-09-02T05:21:23;4.90;1.00
23053;DHT22;11694;-36.632;-64.318;2022-09-02T05:23:51;4.80;1.00
23053;DHT22;11694;-36.632;-64.318;2022-09-02T05:26:19;4.80;1.00
23053;DHT22;11694;-36.632;-64.318;2022-09-02T05:28:46;4.60;1.00
23053;DHT22;11694;-36.632;-64.318;2022-09-02T05:31:15;4.50;1.00
23053;DHT22;11694;-36.632;-64.318;2022-09-02T05:33:43;4.40;8.90
23053;DHT22;11694;-36.632;-64.318;2022-09-02T05:36:16;4.20;15.00
23053;DHT22;11694;-36.632;-64.318;2022-09-02T05:38:43;4.10;21.60
23053;DHT22;11694;-36.632;-64.318;2022-09-02T05:41:17;4.00;24.60
23053;DHT22;11694;-36.632;-64.318;2022-09-02T05:43:45;3.90;23.70
23053;DHT22;11694;-36.632;-64.318;2022-09-02T05:46:17;3.80;24.30
23053;DHT22;11694;-36.632;-64.318;2022-09-02T05:48:46;3.80;22.50
23053;DHT22;11694;-36.632;-64.318;2022-09-02T05:51:38;3.80;23.10
23053;DHT22;11694;-36.632;-64.318;2022-09-02T05:54:18;3.90;24.20
23053;DHT22;11694;-36.632;-64.318;2022-09-02T05:56:48;3.90;23.50
23053;DHT22;11694;-36.632;-64.318;2022-09-02T05:59:16;3.70;30.80
23053;DHT22;11694;-36.632;-64.318;2022-09-02T06:01:45;3.60;33.50
23053;DHT22;11694;-36.632;-64.318;2022-09-02T06:04:13;3.50;32.40
23053;DHT22;11694;-36.632;-64.318;2022-09-02T06:06:40;3.30;36.70
23053;DHT22;11694;-36.632;-64.318;2022-09-02T06:09:09;3.30;42.80
23053;DHT22;11694;-36.632;-64.318;2022-09-02T06:11:38;3.10;47.70
23053;DHT22;11694;-36.632;-64.318;2022-09-02T06:14:12;3.10;52.60
23053;DHT22;11694;-36.632;-64.318;2022-09-02T06:16:41;3.00;57.00
23053;DHT22;11694;-36.632;-64.318;2022-09-02T06:19:08;2.90;61.00
23053;DHT22;11694;-36.632;-64.318;2022-09-02T06:21:37;3.00;64.80
23053;DHT22;11694;-36.632;-64.318;2022-09-02T06:24:06;2.90;64.70
23053;DHT22;11694;-36.632;-64.318;2022-09-02T06:26:33;2.70;66.20
23053;DHT22;11694;-36.632;-64.318;2022-09-02T06:29:00;2.70;66.10
23053;DHT22;11694;-36.632;-64.318;2022-09-02T06:31:28;2.70;64.40
23053;DHT22;11694;-36.632;-64.318;2022-09-02T06:33:56;2.70;63.00
23053;DHT22;11694;-36.632;-64.318;2022-09-02T06:36:26;2.60;61.90
23053;DHT22;11694;-36.632;-64.318;2022-09-02T06:38:55;2.50;63.00
23053;DHT22;11694;-36.632;-64.318;2022-09-02T06:41:25;2.50;62.40
23053;DHT22;11694;-36.632;-64.318;2022-09-02T06:43:59;2.60;65.00
23053;DHT22;11694;-36.632;-64.318;2022-09-02T06:46:35;2.50;72.60
23053;DHT22;11694;-36.632;-64.318;2022-09-02T06:49:04;2.40;67.30
23053;DHT22;11694;-36.632;-64.318;2022-09-02T06:51:40;2.50;67.50
23053;DHT22;11694;-36.632;-64.318;2022-09-02T06:54:09;2.40;71.70
23053;DHT22;11694;-36.632;-64.318;2022-09-02T06:56:37;2.20;75.30
23053;DHT22;11694;-36.632;-64.318;2022-09-02T06:59:06;2.20;77.80
23053;DHT22;11694;-36.632;-64.318;2022-09-02T07:01:33;2.00;79.90
23053;DHT22;11694;-36.632;-64.318;2022-09-02T07:04:02;2.10;80.40
23053;DHT22;11694;-36.632;-64.318;2022-09-02T07:06:53;2.20;75.80
23053;DHT22;11694;-36.632;-64.318;2022-09-02T07:09:23;2.20;73.60
23053;DHT22;11694;-36.632;-64.318;2022-09-02T07:11:57;2.10;72.60
23053;DHT22;11694;-36.632;-64.318;2022-09-02T07:14:25;1.90;76.10
23053;DHT22;11694;-36.632;-64.318;2022-09-02T07:16:55;1.90;78.90
23053;DHT22;11694;-36.632;-64.318;2022-09-02T07:19:23;1.80;82.70
23053;DHT22;11694;-36.632;-64.318;2022-09-02T07:21:51;1.70;84.80
23053;DHT22;11694;-36.632;-64.318;2022-09-02T07:24:18;1.70;86.90
23053;DHT22;11694;-36.632;-64.318;2022-09-02T07:26:45;1.60;87.80
23053;DHT22;11694;-36.632;-64.318;2022-09-02T07:29:13;1.40;89.10
23053;DHT22;11694;-36.632;-64.318;2022-09-02T07:31:42;1.40;93.60
23053;DHT22;11694;-36.632;-64.318;2022-09-02T07:34:10;1.20;94.60
23053;DHT22;11694;-36.632;-64.318;2022-09-02T07:36:37;1.10;96.60
23053;DHT22;11694;-36.632;-64.318;2022-09-02T07:39:06;1.10;98.00
23053;DHT22;11694;-36.632;-64.318;2022-09-02T07:41:34;1.00;98.00
23053;DHT22;11694;-36.632;-64.318;2022-09-02T07:44:03;1.00;97.20
23053;DHT22;11694;-36.632;-64.318;2022-09-02T07:46:31;1.00;97.50
23053;DHT22;11694;-36.632;-64.318;2022-09-02T07:49:00;1.00;97.90
23053;DHT22;11694;-36.632;-64.318;2022-09-02T07:51:27;1.10;97.00
23053;DHT22;11694;-36.632;-64.318;2022-09-02T07:53:54;1.20;93.40
23053;DHT22;11694;-36.632;-64.318;2022-09-02T07:56:21;1.30;91.10
23053;DHT22;11694;-36.632;-64.318;2022-09-02T07:58:48;1.30;89.90
23053;DHT22;11694;-36.632;-64.318;2022-09-02T08:01:16;1.30;89.70
23053;DHT22;11694;-36.632;-64.318;2022-09-02T08:03:43;1.20;87.10
23053;DHT22;11694;-36.632;-64.318;2022-09-02T08:06:12;1.10;91.20
23053;DHT22;11694;-36.632;-64.318;2022-09-02T08:08:41;1.20;92.30
23053;DHT22;11694;-36.632;-64.318;2022-09-02T08:11:08;1.20;91.60
23053;DHT22;11694;-36.632;-64.318;2022-09-02T08:13:36;1.20;92.40
23053;DHT22;11694;-36.632;-64.318;2022-09-02T08:16:04;1.00;96.20
23053;DHT22;11694;-36.632;-64.318;2022-09-02T08:18:31;0.90;97.50
23053;DHT22;11694;-36.632;-64.318;2022-09-02T08:20:59;0.80;99.90
23053;DHT22;11694;-36.632;-64.318;2022-09-02T08:23:26;0.80;99.90
23053;DHT22;11694;-36.632;-64.318;2022-09-02T08:25:53;0.80;99.90
23053;DHT22;11694;-36.632;-64.318;2022-09-02T08:28:20;0.70;99.90
23053;DHT22;11694;-36.632;-64.318;2022-09-02T08:30:47;0.70;99.90
23053;DHT22;11694;-36.632;-64.318;2022-09-02T08:33:14;0.60;99.90
23053;DHT22;11694;-36.632;-64.318;2022-09-02T08:35:41;0.50;99.90
23053;DHT22;11694;-36.632;-64.318;2022-09-02T08:38:08;0.40;99.90
23053;DHT22;11694;-36.632;-64.318;2022-09-02T08:40:38;0.30;99.90
23053;DHT22;11694;-36.632;-64.318;2022-09-02T08:43:37;0.20;99.90
23053;DHT22;11694;-36.632;-64.318;2022-09-02T08:46:07;0.20;99.90
23053;DHT22;11694;-36.632;-64.318;2022-09-02T08:51:48;0.30;99.90
23053;DHT22;11694;-36.632;-64.318;2022-09-02T08:56:47;0.30;99.90
23053;DHT22;11694;-36.632;-64.318;2022-09-02T08:59:23;0.30;99.90
23053;DHT22;11694;-36.632;-64.318;2022-09-02T09:05:25;0.30;99.90
23053;DHT22;11694;-36.632;-64.318;2022-09-02T09:08:09;0.30;99.90
23053;DHT22;11694;-36.632;-64.318;2022-09-02T09:11:00;0.20;99.90
23053;DHT22;11694;-36.632;-64.318;2022-09-02T09:16:40;0.00;99.90
23053;DHT22;11694;-36.632;-64.318;2022-09-02T09:22:13;0.10;99.90
23053;DHT22;11694;-36.632;-64.318;2022-09-02T09:24:46;0.00;99.90
23053;DHT22;11694;-36.632;-64.318;2022-09-02T09:27:22;0.00;99.90
23053;DHT22;11694;-36.632;-64.318;2022-09-02T09:29:50;0.10;99.90
23053;DHT22;11694;-36.632;-64.318;2022-09-02T09:32:36;0.10;99.90
23053;DHT22;11694;-36.632;-64.318;2022-09-02T09:35:07;0.10;99.90
23053;DHT22;11694;-36.632;-64.318;2022-09-02T09:45:47;-0.10;99.90
23053;DHT22;11694;-36.632;-64.318;2022-09-02T09:48:25;0.00;99.90
23053;DHT22;11694;-36.632;-64.318;2022-09-02T09:53:30;-0.30;99.90
23053;DHT22;11694;-36.632;-64.318;2022-09-02T09:56:00;-0.30;99.90
23053;DHT22;11694;-36.632;-64.318;2022-09-02T09:58:46;-0.20;99.90
23053;DHT22;11694;-36.632;-64.318;2022-09-02T10:01:17;-0.30;99.90
23053;DHT22;11694;-36.632;-64.318;2022-09-02T10:09:01;-0.50;99.90
23053;DHT22;11694;-36.632;-64.318;2022-09-02T10:11:34;-0.50;99.90
23053;DHT22;11694;-36.632;-64.318;2022-09-02T10:14:09;-0.50;99.90
23053;DHT22;11694;-36.632;-64.318;2022-09-02T10:16:44;-0.70;99.90
23053;DHT22;11694;-36.632;-64.318;2022-09-02T10:22:39;-0.70;99.90
23053;DHT22;11694;-36.632;-64.318;2022-09-02T10:28:27;-0.80;99.90
23053;DHT22;11694;-36.632;-64.318;2022-09-02T10:31:21;-0.80;99.90
23053;DHT22;11694;-36.632;-64.318;2022-09-02T10:40:07;-0.70;99.90
23053;DHT22;11694;-36.632;-64.318;2022-09-02T10:45:43;-0.60;99.90
23053;DHT22;11694;-36.632;-64.318;2022-09-02T10:48:40;-0.60;99.90
23053;DHT22;11694;-36.632;-64.318;2022-09-02T11:02:29;0.00;99.90
23053;DHT22;11694;-36.632;-64.318;2022-09-02T11:05:13;0.50;99.90
23053;DHT22;11694;-36.632;-64.318;2022-09-02T11:08:04;0.80;99.90
23053;DHT22;11694;-36.632;-64.318;2022-09-02T11:10:42;1.40;97.20
23053;DHT22;11694;-36.632;-64.318;2022-09-02T11:16:19;2.70;60.70
23053;DHT22;11694;-36.632;-64.318;2022-09-02T11:19:00;3.20;46.50
23053;DHT22;11694;-36.632;-64.318;2022-09-02T11:22:06;3.90;32.20
23053;DHT22;11694;-36.632;-64.318;2022-09-02T11:24:57;4.60;21.80
23053;DHT22;11694;-36.632;-64.318;2022-09-02T11:30:34;5.30;1.00
23053;DHT22;11694;-36.632;-64.318;2022-09-02T11:35:40;6.60;1.00
23053;DHT22;11694;-36.632;-64.318;2022-09-02T11:41:06;7.10;1.00
23053;DHT22;11694;-36.632;-64.318;2022-09-02T11:43:55;7.40;1.00
23053;DHT22;11694;-36.632;-64.318;2022-09-02T11:54:45;7.90;1.00
23053;DHT22;11694;-36.632;-64.318;2022-09-02T11:57:20;8.20;1.00
23053;DHT22;11694;-36.632;-64.318;2022-09-02T12:08:09;9.20;1.00
23053;DHT22;11694;-36.632;-64.318;2022-09-02T12:13:40;9.30;1.00
23053;DHT22;11694;-36.632;-64.318;2022-09-02T12:21:26;10.00;1.00
23053;DHT22;11694;-36.632;-64.318;2022-09-02T12:26:28;10.90;99.90
23053;DHT22;11694;-36.632;-64.318;2022-09-02T12:29:29;11.30;99.90
23053;DHT22;11694;-36.632;-64.318;2022-09-02T12:31:57;11.90;99.90
23053;DHT22;11694;-36.632;-64.318;2022-09-02T12:36:58;12.40;99.90
23053;DHT22;11694;-36.632;-64.318;2022-09-02T12:52:50;14.30;99.90
23053;DHT22;11694;-36.632;-64.318;2022-09-02T12:55:29;14.50;99.90
23053;DHT22;11694;-36.632;-64.318;2022-09-02T12:58:10;14.70;99.90
23053;DHT22;11694;-36.632;-64.318;2022-09-02T13:06:02;16.30;99.90
23053;DHT22;11694;-36.632;-64.318;2022-09-02T13:11:59;17.20;99.90
23053;DHT22;11694;-36.632;-64.318;2022-09-02T13:28:34;18.00;99.90
23053;DHT22;11694;-36.632;-64.318;2022-09-02T13:31:24;18.20;99.90
23053;DHT22;11694;-36.632;-64.318;2022-09-02T13:34:04;18.60;99.90
23053;DHT22;11694;-36.632;-64.318;2022-09-02T13:36:35;18.70;99.90
23053;DHT22;11694;-36.632;-64.318;2022-09-02T13:39:17;18.70;99.50
23053;DHT22;11694;-36.632;-64.318;2022-09-02T13:41:45;19.20;99.90
23053;DHT22;11694;-36.632;-64.318;2022-09-02T13:44:23;19.10;96.40
23053;DHT22;11694;-36.632;-64.318;2022-09-02T13:49:36;18.90;84.20
23053;DHT22;11694;-36.632;-64.318;2022-09-02T13:52:11;19.30;90.10
23053;DHT22;11694;-36.632;-64.318;2022-09-02T13:54:42;19.60;85.40
23053;DHT22;11694;-36.632;-64.318;2022-09-02T13:57:12;19.70;90.70
23053;DHT22;11694;-36.632;-64.318;2022-09-02T13:59:50;19.80;86.70
23053;DHT22;11694;-36.632;-64.318;2022-09-02T14:02:34;19.80;71.00
23053;DHT22;11694;-36.632;-64.318;2022-09-02T14:05:06;19.60;75.80
23053;DHT22;11694;-36.632;-64.318;2022-09-02T14:07:51;19.80;68.10
23053;DHT22;11694;-36.632;-64.318;2022-09-02T14:10:22;20.00;61.30
23053;DHT22;11694;-36.632;-64.318;2022-09-02T14:12:51;20.30;65.20
23053;DHT22;11694;-36.632;-64.318;2022-09-02T14:15:25;20.50;56.70
23053;DHT22;11694;-36.632;-64.318;2022-09-02T14:18:15;20.70;60.90
23053;DHT22;11694;-36.632;-64.318;2022-09-02T14:20:55;20.50;55.90
23053;DHT22;11694;-36.632;-64.318;2022-09-02T14:23:24;20.50;51.00
23053;DHT22;11694;-36.632;-64.318;2022-09-02T14:25:56;20.50;49.30
23053;DHT22;11694;-36.632;-64.318;2022-09-02T14:28:32;20.80;47.10
23053;DHT22;11694;-36.632;-64.318;2022-09-02T14:31:05;21.10;40.80
23053;DHT22;11694;-36.632;-64.318;2022-09-02T14:41:23;21.60;39.90
23053;DHT22;11694;-36.632;-64.318;2022-09-02T14:43:59;21.70;39.20
23053;DHT22;11694;-36.632;-64.318;2022-09-02T14:46:36;21.80;34.70
23053;DHT22;11694;-36.632;-64.318;2022-09-02T14:49:10;22.10;35.80
23053;DHT22;11694;-36.632;-64.318;2022-09-02T14:51:43;22.00;34.50
23053;DHT22;11694;-36.632;-64.318;2022-09-02T14:54:11;21.90;34.80
23053;DHT22;11694;-36.632;-64.318;2022-09-02T14:56:51;21.80;32.80
23053;DHT22;11694;-36.632;-64.318;2022-09-02T14:59:19;21.70;34.70
23053;DHT22;11694;-36.632;-64.318;2022-09-02T15:01:48;21.80;36.00
23053;DHT22;11694;-36.632;-64.318;2022-09-02T15:04:17;21.90;37.00
23053;DHT22;11694;-36.632;-64.318;2022-09-02T15:06:45;22.10;34.80
23053;DHT22;11694;-36.632;-64.318;2022-09-02T15:09:13;22.10;32.70
23053;DHT22;11694;-36.632;-64.318;2022-09-02T15:11:44;22.10;35.80
23053;DHT22;11694;-36.632;-64.318;2022-09-02T15:14:12;22.40;32.60
23053;DHT22;11694;-36.632;-64.318;2022-09-02T15:16:39;22.50;29.40
23053;DHT22;11694;-36.632;-64.318;2022-09-02T15:19:07;22.60;28.90
23053;DHT22;11694;-36.632;-64.318;2022-09-02T15:21:34;22.40;26.70
23053;DHT22;11694;-36.632;-64.318;2022-09-02T15:24:01;22.50;28.90
23053;DHT22;11694;-36.632;-64.318;2022-09-02T15:26:28;22.60;31.20
23053;DHT22;11694;-36.632;-64.318;2022-09-02T15:28:55;22.30;32.40
23053;DHT22;11694;-36.632;-64.318;2022-09-02T15:31:23;22.20;31.20
23053;DHT22;11694;-36.632;-64.318;2022-09-02T15:33:51;22.30;29.70
23053;DHT22;11694;-36.632;-64.318;2022-09-02T15:36:19;21.80;25.80
23053;DHT22;11694;-36.632;-64.318;2022-09-02T15:38:46;21.70;25.70
23053;DHT22;11694;-36.632;-64.318;2022-09-02T15:41:19;21.70;26.80
23053;DHT22;11694;-36.632;-64.318;2022-09-02T15:43:47;21.80;26.30
23053;DHT22;11694;-36.632;-64.318;2022-09-02T15:46:28;21.90;27.70
23053;DHT22;11694;-36.632;-64.318;2022-09-02T15:49:00;21.70;27.00
23053;DHT22;11694;-36.632;-64.318;2022-09-02T15:51:29;22.00;26.90
23053;DHT22;11694;-36.632;-64.318;2022-09-02T15:54:02;21.80;24.20
23053;DHT22;11694;-36.632;-64.318;2022-09-02T15:56:31;21.90;27.20
23053;DHT22;11694;-36.632;-64.318;2022-09-02T15:59:07;21.80;25.90
23053;DHT22;11694;-36.632;-64.318;2022-09-02T16:01:42;22.20;29.20
23053;DHT22;11694;-36.632;-64.318;2022-09-02T16:04:11;22.30;26.20
23053;DHT22;11694;-36.632;-64.318;2022-09-02T16:06:41;22.20;25.10
23053;DHT22;11694;-36.632;-64.318;2022-09-02T16:09:12;22.10;27.00
23053;DHT22;11694;-36.632;-64.318;2022-09-02T16:11:42;22.30;25.80
23053;DHT22;11694;-36.632;-64.318;2022-09-02T16:14:10;22.40;24.30
23053;DHT22;11694;-36.632;-64.318;2022-09-02T16:16:37;22.60;28.20
23053;DHT22;11694;-36.632;-64.318;2022-09-02T16:19:05;23.00;27.60
23053;DHT22;11694;-36.632;-64.318;2022-09-02T16:21:36;23.30;28.50
23053;DHT22;11694;-36.632;-64.318;2022-09-02T16:24:08;23.30;26.80
23053;DHT22;11694;-36.632;-64.318;2022-09-02T16:26:39;23.10;25.60
23053;DHT22;11694;-36.632;-64.318;2022-09-02T16:29:12;23.10;24.30
23053;DHT22;11694;-36.632;-64.318;2022-09-02T16:31:42;23.30;25.90
23053;DHT22;11694;-36.632;-64.318;2022-09-02T16:34:12;23.10;22.90
23053;DHT22;11694;-36.632;-64.318;2022-09-02T16:36:44;22.50;21.30
23053;DHT22;11694;-36.632;-64.318;2022-09-02T16:39:12;22.30;22.30
23053;DHT22;11694;-36.632;-64.318;2022-09-02T16:41:45;22.70;23.90
23053;DHT22;11694;-36.632;-64.318;2022-09-02T16:44:18;23.00;22.90
23053;DHT22;11694;-36.632;-64.318;2022-09-02T16:46:47;22.70;20.90
23053;DHT22;11694;-36.632;-64.318;2022-09-02T16:49:16;22.70;21.50
23053;DHT22;11694;-36.632;-64.318;2022-09-02T16:51:48;22.70;21.80
23053;DHT22;11694;-36.632;-64.318;2022-09-02T16:54:17;22.80;22.10
23053;DHT22;11694;-36.632;-64.318;2022-09-02T16:56:45;22.60;23.50
23053;DHT22;11694;-36.632;-64.318;2022-09-02T16:59:13;23.00;21.60
23053;DHT22;11694;-36.632;-64.318;2022-09-02T17:01:40;22.90;20.30
23053;DHT22;11694;-36.632;-64.318;2022-09-02T17:04:07;22.70;19.40
23053;DHT22;11694;-36.632;-64.318;2022-09-02T17:06:35;22.50;18.60
23053;DHT22;11694;-36.632;-64.318;2022-09-02T17:09:02;22.40;19.60
23053;DHT22;11694;-36.632;-64.318;2022-09-02T17:11:32;22.60;20.70
23053;DHT22;11694;-36.632;-64.318;2022-09-02T17:14:13;22.80;21.70
23053;DHT22;11694;-36.632;-64.318;2022-09-02T17:16:42;22.50;19.40
23053;DHT22;11694;-36.632;-64.318;2022-09-02T17:19:10;22.10;17.90
23053;DHT22;11694;-36.632;-64.318;2022-09-02T17:21:43;22.10;18.60
23053;DHT22;11694;-36.632;-64.318;2022-09-02T17:24:13;22.10;18.10
23053;DHT22;11694;-36.632;-64.318;2022-09-02T17:26:42;22.20;21.10
23053;DHT22;11694;-36.632;-64.318;2022-09-02T17:29:14;22.00;22.10
23053;DHT22;11694;-36.632;-64.318;2022-09-02T17:31:45;22.20;21.40
23053;DHT22;11694;-36.632;-64.318;2022-09-02T17:34:13;22.50;22.70
23053;DHT22;11694;-36.632;-64.318;2022-09-02T17:36:42;22.30;23.20
23053;DHT22;11694;-36.632;-64.318;2022-09-02T17:39:14;22.00;21.40
23053;DHT22;11694;-36.632;-64.318;2022-09-02T17:41:42;22.20;23.40
23053;DHT22;11694;-36.632;-64.318;2022-09-02T17:44:25;22.50;22.40